createdAt,value
2023-03-23T15:58:18.131Z,4.75
2023-03-23T16:00:49.683Z,4.63
2023-03-23T16:03:48.615Z,4.53
2023-03-23T16:06:25.427Z,4.18
2023-03-23T16:08:57.585Z,4.57
2023-03-23T16:11:28.306Z,5.03
2023-03-23T16:13:56.832Z,5.50
2023-03-23T16:16:40.407Z,5.53
2023-03-23T16:19:11.982Z,4.68
2023-03-23T16:21:41.460Z,3.90
2023-03-23T16:24:10.208Z,4.28
2023-03-23T16:26:37.959Z,3.13
2023-03-23T16:29:24.420Z,3.33
2023-03-23T16:32:01.785Z,3.55
2023-03-23T16:34:33.349Z,3.55
2023-03-23T16:37:00.850Z,3.28
2023-03-23T16:39:28.757Z,3.70
2023-03-23T16:41:56.124Z,2.88
2023-03-23T16:44:23.494Z,2.85
2023-03-23T16:46:50.922Z,4.50
2023-03-23T16:49:18.351Z,7.07
2023-03-23T16:51:45.686Z,7.15
2023-03-23T16:54:13.182Z,6.63
2023-03-23T16:56:41.136Z,6.72
2023-03-23T16:59:08.483Z,7.07
2023-03-23T17:01:35.880Z,6.80
2023-03-23T17:04:03.230Z,6.93
2023-03-23T17:06:30.765Z,7.28
2023-03-23T17:08:58.051Z,6.90
2023-03-23T17:11:25.184Z,6.85
2023-03-23T17:13:52.418Z,7.05
2023-03-23T17:16:19.714Z,7.18
2023-03-23T17:18:47.230Z,6.47
2023-03-23T17:21:14.383Z,6.60
2023-03-23T17:23:41.954Z,6.70
2023-03-23T17:26:09.183Z,7.32
2023-03-23T17:28:36.579Z,7.20
2023-03-23T17:31:03.926Z,7.28
2023-03-23T17:33:31.206Z,6.97
2023-03-23T17:35:58.405Z,6.97
2023-03-23T17:38:25.774Z,6.85
2023-03-23T17:40:59.975Z,6.03
2023-03-23T17:43:27.666Z,6.32
2023-03-23T17:45:54.583Z,6.57
2023-03-23T17:48:23.410Z,6.63
2023-03-23T17:50:57.877Z,5.55
2023-03-23T17:53:26.824Z,7.13
2023-03-23T17:55:54.192Z,7.20
2023-03-23T17:58:21.576Z,8.20
2023-03-23T18:00:48.716Z,7.97
2023-03-23T18:03:16.227Z,8.73
2023-03-23T18:05:44.237Z,8.73
2023-03-23T18:08:12.321Z,9.80
2023-03-23T18:10:41.026Z,9.82
2023-03-23T18:13:09.048Z,10.32
2023-03-23T18:15:37.397Z,9.25
2023-03-23T18:18:06.153Z,10.77
2023-03-23T18:20:34.155Z,11.93
2023-03-23T18:23:01.420Z,9.90
2023-03-23T18:25:28.663Z,10.73
2023-03-23T18:27:56.717Z,10.20
2023-03-23T18:30:32.811Z,9.13
2023-03-23T18:33:00.251Z,9.77
2023-03-23T18:35:28.251Z,8.52
2023-03-23T18:37:56.014Z,8.63
2023-03-23T18:40:23.254Z,8.48
2023-03-23T18:42:50.579Z,9.02
2023-03-23T18:45:17.878Z,9.10
2023-03-23T18:47:45.331Z,9.07
2023-03-23T18:50:12.830Z,8.00
2023-03-23T18:52:40.635Z,8.07
2023-03-23T18:55:08.393Z,8.20
2023-03-23T18:57:35.856Z,8.80
2023-03-23T19:00:07.015Z,8.80
2023-03-23T19:02:35.662Z,9.60
2023-03-23T19:05:03.021Z,9.25
2023-03-23T19:07:31.335Z,8.98
2023-03-23T19:09:58.756Z,8.98
2023-03-23T19:12:26.389Z,9.40
2023-03-23T19:14:54.068Z,8.20
2023-03-23T19:17:21.180Z,8.55
2023-03-23T19:19:48.906Z,8.52
2023-03-23T19:22:16.146Z,8.85
2023-03-23T19:24:43.403Z,8.15
2023-03-23T19:27:11.062Z,8.68
2023-03-23T19:29:38.468Z,8.25
2023-03-23T19:32:06.674Z,8.77
2023-03-23T19:34:34.191Z,9.63
2023-03-23T19:37:06.026Z,8.52
2023-03-23T19:39:35.085Z,7.88
2023-03-23T19:42:04.352Z,8.40
2023-03-23T19:44:32.356Z,8.70
2023-03-23T19:47:02.924Z,7.88
2023-03-23T19:49:30.599Z,8.75
2023-03-23T19:52:09.079Z,8.35
2023-03-23T19:54:40.914Z,8.05
2023-03-23T19:57:10.253Z,7.88
2023-03-23T19:59:39.330Z,8.05
2023-03-23T20:02:07.404Z,7.50
2023-03-23T20:04:35.721Z,8.30
2023-03-23T20:07:07.211Z,7.82
2023-03-23T20:09:35.873Z,7.13
2023-03-23T20:12:04.971Z,7.93
2023-03-23T20:14:33.232Z,7.82
2023-03-23T20:17:01.136Z,7.22
2023-03-23T20:19:28.796Z,8.20
2023-03-23T20:21:56.431Z,7.53
2023-03-23T20:24:23.840Z,7.65
2023-03-23T20:26:51.525Z,8.30
2023-03-23T20:29:18.600Z,8.02
2023-03-23T20:31:47.335Z,7.50
2023-03-23T20:34:29.134Z,8.10
2023-03-23T20:36:58.530Z,6.78
2023-03-23T20:39:29.467Z,7.70
2023-03-23T20:42:02.128Z,7.25
2023-03-23T20:46:59.642Z,7.65
2023-03-23T20:49:27.883Z,7.32
2023-03-23T20:51:55.085Z,7.50
2023-03-23T20:54:23.007Z,6.95
2023-03-23T20:56:50.858Z,7.25
2023-03-23T20:59:20.213Z,7.22
2023-03-23T21:01:50.807Z,7.53
2023-03-23T21:04:20.787Z,7.35
2023-03-23T21:06:49.330Z,6.90
2023-03-23T21:09:17.836Z,7.63
2023-03-23T21:11:46.532Z,7.57
2023-03-23T21:14:14.093Z,7.25
2023-03-23T21:16:42.518Z,7.82
2023-03-23T21:19:10.697Z,7.72
2023-03-23T21:21:56.797Z,6.85
2023-03-23T21:24:29.546Z,7.22
2023-03-23T21:27:02.275Z,6.80
2023-03-23T21:29:31.165Z,7.03
2023-03-23T21:34:29.394Z,6.95
2023-03-23T21:36:56.775Z,6.63
2023-03-23T21:39:24.520Z,7.00
2023-03-23T21:41:52.146Z,7.00
2023-03-23T21:44:26.243Z,6.55
2023-03-23T21:46:54.712Z,6.70
2023-03-23T21:49:22.696Z,6.45
2023-03-23T21:51:50.433Z,6.47
2023-03-23T21:54:17.831Z,6.25
2023-03-23T21:56:45.134Z,6.70
2023-03-23T21:59:12.475Z,6.80
2023-03-23T22:01:40.661Z,6.85
2023-03-23T22:04:07.923Z,5.95
2023-03-23T22:06:35.074Z,7.20
2023-03-23T22:09:05.652Z,6.28
2023-03-23T22:11:33.175Z,6.82
2023-03-23T22:14:01.443Z,6.22
2023-03-23T22:16:29.653Z,7.18
2023-03-23T22:19:00.345Z,6.53
2023-03-23T22:21:29.190Z,7.07
2023-03-23T22:23:59.994Z,6.95
2023-03-23T22:26:29.746Z,6.50
2023-03-23T22:28:58.856Z,6.63
2023-03-23T22:31:30.585Z,6.88
2023-03-23T22:33:58.243Z,7.22
2023-03-23T22:36:31.387Z,6.32
2023-03-23T22:38:58.746Z,5.75
2023-03-23T22:41:32.702Z,6.45
2023-03-23T22:44:01.057Z,5.55
2023-03-23T22:46:28.887Z,6.78
2023-03-23T22:48:56.308Z,6.22
2023-03-23T22:51:24.907Z,6.13
2023-03-23T22:53:52.702Z,5.93
2023-03-23T22:56:20.356Z,6.75
2023-03-23T22:58:47.733Z,6.72
2023-03-23T23:01:20.180Z,6.65
2023-03-23T23:03:48.368Z,6.68
2023-03-23T23:06:17.164Z,6.68
2023-03-23T23:08:45.939Z,6.30
2023-03-23T23:11:17.266Z,6.55
2023-03-23T23:13:45.784Z,6.60
2023-03-23T23:16:14.277Z,7.05
2023-03-23T23:18:42.721Z,5.97
2023-03-23T23:21:14.803Z,6.63
2023-03-23T23:23:42.786Z,5.35
2023-03-23T23:26:10.221Z,6.20
2023-03-23T23:28:37.807Z,6.82
2023-03-23T23:31:06.807Z,6.00
2023-03-23T23:33:33.945Z,6.30
2023-03-23T23:36:01.927Z,6.20
2023-03-23T23:38:29.867Z,6.57
2023-03-23T23:40:57.854Z,6.68
2023-03-23T23:43:25.009Z,6.32
2023-03-23T23:45:53.063Z,5.80
2023-03-23T23:48:20.312Z,7.10
2023-03-23T23:50:50.861Z,6.30
2023-03-23T23:53:23.209Z,6.30
2023-03-23T23:55:50.587Z,6.15
2023-03-23T23:58:22.043Z,6.45
